createdAt,value
2022-10-16T00:01:44.146Z,78.5
2022-10-16T00:04:32.100Z,78.6
2022-10-16T00:07:19.441Z,78.4
2022-10-16T00:10:06.976Z,78.4
2022-10-16T00:12:54.855Z,78.6
2022-10-16T00:15:42.147Z,78.6
2022-10-16T00:18:29.746Z,78.5
2022-10-16T00:21:17.599Z,78.3
2022-10-16T00:24:07.452Z,78.6
2022-10-16T00:26:56.422Z,78.5
2022-10-16T00:29:43.960Z,78.4
2022-10-16T00:32:31.304Z,78.4
2022-10-16T00:35:18.855Z,78.4
2022-10-16T00:38:06.222Z,78.3
2022-10-16T00:40:53.735Z,78.3
2022-10-16T00:43:41.735Z,78
2022-10-16T00:46:31.065Z,78.1
2022-10-16T00:49:23.724Z,78
2022-10-16T00:52:11.212Z,78.1
2022-10-16T00:55:00.876Z,78
2022-10-16T00:57:50.753Z,77.9
2022-10-16T01:00:38.488Z,77.9
2022-10-16T01:03:26.037Z,77.9
2022-10-16T01:06:16.401Z,77.8
2022-10-16T01:09:10.832Z,78
2022-10-16T01:12:04.399Z,78.1
2022-10-16T01:15:00.889Z,77.9
2022-10-16T01:17:57.630Z,77.8
2022-10-16T01:20:51.885Z,77.8
2022-10-16T01:23:45.666Z,77.8
2022-10-16T01:26:45.434Z,77.8
2022-10-16T01:29:51.216Z,77.8
2022-10-16T01:32:42.460Z,77.9
2022-10-16T01:35:36.247Z,77.7
2022-10-16T01:38:28.936Z,77.7
2022-10-16T01:41:20.259Z,77.8
2022-10-16T01:44:14.616Z,77.7
2022-10-16T01:47:06.403Z,77.7
2022-10-16T01:49:57.965Z,77.7
2022-10-16T01:52:50.417Z,77.8
2022-10-16T01:55:42.377Z,77.6
2022-10-16T01:58:34.636Z,77.6
2022-10-16T02:01:27.678Z,77.6
2022-10-16T02:04:17.530Z,77.4
2022-10-16T02:07:09.560Z,77.6
2022-10-16T02:09:57.149Z,77.6
2022-10-16T02:12:46.428Z,77.7
2022-10-16T02:15:40.073Z,77.7
2022-10-16T02:18:27.449Z,77.7
2022-10-16T02:21:16.404Z,77.7
2022-10-16T02:24:11.296Z,77.4
2022-10-16T02:27:04.803Z,77.4
2022-10-16T02:29:56.468Z,77.5
2022-10-16T02:32:53.647Z,77.5
2022-10-16T02:35:42.500Z,77.4
2022-10-16T02:38:32.775Z,77.4
2022-10-16T02:41:20.744Z,77.3
2022-10-16T02:44:08.992Z,77.2
2022-10-16T02:46:56.890Z,77.2
2022-10-16T02:49:44.166Z,77.1
2022-10-16T02:52:31.448Z,77.1
2022-10-16T02:55:18.944Z,77.2
2022-10-16T02:58:06.324Z,76.9
2022-10-16T03:00:53.710Z,77
2022-10-16T03:03:42.053Z,77
2022-10-16T03:06:29.329Z,77.1
2022-10-16T03:09:16.572Z,77.1
2022-10-16T03:12:03.935Z,77.1
2022-10-16T03:14:51.349Z,77.2
2022-10-16T03:17:38.876Z,77
2022-10-16T03:20:26.304Z,77
2022-10-16T03:23:13.683Z,77.4
2022-10-16T03:26:01.336Z,77.1
2022-10-16T03:28:49.823Z,77.4
2022-10-16T03:31:37.330Z,77.1
2022-10-16T03:34:24.708Z,77.2
2022-10-16T03:37:12.335Z,77.4
2022-10-16T03:39:59.721Z,77.4
2022-10-16T03:42:48.220Z,77.3
2022-10-16T03:45:35.685Z,77.3
2022-10-16T03:48:23.128Z,77.5
2022-10-16T03:51:10.468Z,77.6
2022-10-16T03:53:57.776Z,77.4
2022-10-16T03:56:45.207Z,77.4
2022-10-16T03:59:32.596Z,77.7
2022-10-16T04:02:20.000Z,77.5
2022-10-16T04:05:07.381Z,77.4
2022-10-16T04:07:55.058Z,77.4
2022-10-16T04:10:42.333Z,77.6
2022-10-16T04:13:29.658Z,77.3
2022-10-16T04:16:16.901Z,77.7
2022-10-16T04:19:04.452Z,77.7
2022-10-16T04:21:51.847Z,77.9
2022-10-16T04:24:39.159Z,78
2022-10-16T04:27:26.945Z,78
2022-10-16T04:30:16.739Z,78
2022-10-16T04:33:04.173Z,77.9
2022-10-16T04:35:51.813Z,77.8
2022-10-16T04:38:44.036Z,78
2022-10-16T04:41:31.357Z,78.2
2022-10-16T04:44:18.826Z,78.1
2022-10-16T04:47:06.190Z,78.4
2022-10-16T04:49:53.910Z,78.3
2022-10-16T04:52:42.569Z,78.3
2022-10-16T04:55:29.879Z,78
2022-10-16T04:58:17.762Z,78.3
2022-10-16T05:01:05.251Z,78.7
2022-10-16T05:03:52.602Z,78.6
2022-10-16T05:06:40.028Z,79
2022-10-16T05:09:28.153Z,78.9
2022-10-16T05:12:15.619Z,78.7
2022-10-16T05:15:03.173Z,78.7
2022-10-16T05:17:51.830Z,79
2022-10-16T05:20:39.844Z,79
2022-10-16T05:23:27.707Z,79
2022-10-16T05:26:15.212Z,79.2
2022-10-16T05:29:02.995Z,79.3
2022-10-16T05:31:50.671Z,79.6
2022-10-16T05:34:38.716Z,79.1
2022-10-16T05:37:26.448Z,79
2022-10-16T05:40:14.034Z,79
2022-10-16T05:43:02.610Z,78.8
2022-10-16T05:45:49.984Z,78.8
2022-10-16T05:48:41.906Z,78.8
2022-10-16T05:51:29.668Z,79
2022-10-16T05:54:16.991Z,78.9
2022-10-16T05:57:04.658Z,79.4
2022-10-16T05:59:51.933Z,79.2
2022-10-16T06:02:39.397Z,79.2
2022-10-16T06:05:26.850Z,79
2022-10-16T06:08:14.212Z,79.4
2022-10-16T06:11:01.968Z,79.3
2022-10-16T06:13:52.544Z,79.1
2022-10-16T06:16:42.210Z,79.2
2022-10-16T06:19:29.694Z,79.1
2022-10-16T06:22:17.125Z,79.4
2022-10-16T06:25:04.648Z,79.4
2022-10-16T06:27:52.870Z,79.3
2022-10-16T06:30:40.185Z,79.1
2022-10-16T06:33:29.356Z,79.2
2022-10-16T06:36:17.088Z,79.2
2022-10-16T06:39:04.565Z,79.3
2022-10-16T06:41:52.967Z,79.4
2022-10-16T06:44:40.272Z,79.5
2022-10-16T06:47:27.686Z,79.3
2022-10-16T06:50:14.996Z,79.4
2022-10-16T06:53:02.651Z,79.5
2022-10-16T06:55:50.112Z,79.4
2022-10-16T06:58:37.714Z,79.6
2022-10-16T07:01:25.479Z,79
2022-10-16T07:04:13.600Z,79.5
2022-10-16T07:07:02.508Z,79
2022-10-16T07:09:51.810Z,79.2
2022-10-16T07:12:39.157Z,78.7
2022-10-16T07:15:27.171Z,78.7
2022-10-16T07:18:14.573Z,78.7
2022-10-16T07:21:02.205Z,78.6
2022-10-16T07:23:51.373Z,78.4
2022-10-16T07:26:40.402Z,78.3
2022-10-16T07:29:29.799Z,78.2
2022-10-16T07:32:17.286Z,78.1
2022-10-16T07:35:04.644Z,77.9
2022-10-16T07:37:53.206Z,77.9
2022-10-16T07:40:40.585Z,77.9
2022-10-16T07:43:28.000Z,78
2022-10-16T07:46:15.596Z,78
2022-10-16T07:49:04.472Z,77.8
2022-10-16T07:51:52.124Z,77.6
2022-10-16T07:54:39.560Z,77.4
2022-10-16T07:57:27.286Z,77
2022-10-16T08:00:15.347Z,76.8
2022-10-16T08:03:02.997Z,76
2022-10-16T08:05:50.926Z,76
2022-10-16T08:08:38.628Z,75.8
2022-10-16T08:11:26.461Z,75.7
2022-10-16T08:14:13.856Z,75.4
2022-10-16T08:17:01.702Z,75.1
2022-10-16T08:19:49.910Z,74.4
2022-10-16T08:22:37.259Z,74.8
2022-10-16T08:25:24.783Z,74.9
2022-10-16T08:28:12.218Z,74.6
2022-10-16T08:30:59.538Z,74.9
2022-10-16T08:33:56.410Z,74.6
2022-10-16T08:36:43.784Z,74.5
2022-10-16T08:39:31.207Z,74.4
2022-10-16T08:42:18.738Z,74.4
2022-10-16T08:45:18.591Z,74.5
2022-10-16T08:48:20.794Z,74.1
2022-10-16T08:51:13.722Z,73.7
2022-10-16T08:54:10.653Z,73.6
2022-10-16T08:57:11.263Z,73.5
2022-10-16T09:00:03.996Z,73.6
2022-10-16T09:02:59.473Z,73.2
2022-10-16T09:05:59.943Z,73.6
2022-10-16T09:09:03.977Z,73.1
2022-10-16T09:12:06.433Z,72.4
2022-10-16T09:15:01.526Z,73.2
2022-10-16T09:18:00.411Z,72.6
2022-10-16T09:20:56.009Z,72.6
2022-10-16T09:23:52.899Z,72
2022-10-16T09:26:43.462Z,71.4
2022-10-16T09:29:31.612Z,71.6
2022-10-16T09:32:19.144Z,71.3
2022-10-16T09:35:08.250Z,69.4
2022-10-16T09:38:01.620Z,69.4
2022-10-16T09:40:58.882Z,69.1
2022-10-16T09:44:01.460Z,68.5
2022-10-16T09:46:52.789Z,68.7
2022-10-16T09:49:49.384Z,68.8
2022-10-16T09:52:39.124Z,68.2
2022-10-16T09:55:26.465Z,68.3
2022-10-16T09:58:13.853Z,67.7
2022-10-16T10:01:01.741Z,68.1
2022-10-16T10:03:50.113Z,68.1
2022-10-16T10:06:46.428Z,67.9
2022-10-16T10:09:36.377Z,67.4
2022-10-16T10:12:27.268Z,68.4
2022-10-16T10:15:17.893Z,66.3
2022-10-16T10:18:07.406Z,67.8
2022-10-16T10:23:51.637Z,67.4
2022-10-16T10:26:44.250Z,67.5
2022-10-16T10:29:40.615Z,67
2022-10-16T10:32:35.460Z,65.7
2022-10-16T10:35:30.662Z,65.6
2022-10-16T10:38:25.648Z,65.3
2022-10-16T10:41:26.555Z,64.3
2022-10-16T10:44:45.453Z,64.1
2022-10-16T10:47:47.268Z,64
2022-10-16T10:50:50.182Z,63.3
2022-10-16T10:53:43.960Z,63.9
2022-10-16T10:56:40.412Z,62.8
2022-10-16T10:59:37.682Z,63.1
2022-10-16T11:02:38.269Z,64.5
2022-10-16T11:05:33.736Z,63.8
2022-10-16T11:08:27.252Z,63.1
2022-10-16T11:11:21.016Z,62.5
2022-10-16T11:14:15.735Z,61.6
2022-10-16T11:17:06.359Z,60
2022-10-16T11:19:59.880Z,60.8
2022-10-16T11:22:59.688Z,60.6
2022-10-16T11:25:56.463Z,60.4
2022-10-16T11:28:52.051Z,60.2
2022-10-16T11:31:41.917Z,59.6
2022-10-16T11:34:37.677Z,60.7
2022-10-16T11:37:31.056Z,60.9
2022-10-16T11:40:24.305Z,61.6
2022-10-16T11:43:16.965Z,62.1
2022-10-16T11:46:10.944Z,60.1
2022-10-16T11:49:01.829Z,59.4
2022-10-16T11:51:58.468Z,60.1
2022-10-16T11:54:58.615Z,61.1
2022-10-16T11:57:52.350Z,61.5
2022-10-16T12:00:44.710Z,62.6
2022-10-16T12:03:39.405Z,61.9
2022-10-16T12:06:32.190Z,60.8
2022-10-16T12:09:25.614Z,61.2
2022-10-16T12:12:16.457Z,60.8
2022-10-16T12:15:17.800Z,60.8
2022-10-16T12:18:11.441Z,61
2022-10-16T12:21:07.872Z,60.7
2022-10-16T12:23:59.007Z,60.5
2022-10-16T12:26:49.991Z,60.3
2022-10-16T12:29:38.900Z,60.5
2022-10-16T12:32:45.571Z,60.9
2022-10-16T12:35:40.141Z,60.8
2022-10-16T12:38:30.688Z,60.6
2022-10-16T12:41:24.235Z,60.8
2022-10-16T12:44:14.409Z,61.1
2022-10-16T12:47:10.078Z,61.4
2022-10-16T12:50:12.914Z,61.9
2022-10-16T12:53:16.929Z,61.7
2022-10-16T12:56:06.907Z,60.7
2022-10-16T12:59:05.437Z,60.2
2022-10-16T13:02:01.774Z,59.3
2022-10-16T13:05:27.190Z,59.9
2022-10-16T13:08:27.466Z,59.3
2022-10-16T13:11:27.285Z,59.5
2022-10-16T13:14:31.397Z,61
2022-10-16T13:17:51.576Z,60.3
2022-10-16T13:20:46.722Z,60.5
2022-10-16T13:23:48.878Z,61.9
2022-10-16T13:26:47.332Z,61.9
2022-10-16T13:29:43.265Z,62.4
2022-10-16T13:32:31.726Z,62.5
2022-10-16T13:35:19.299Z,61.8
2022-10-16T13:38:09.278Z,61.5
2022-10-16T13:41:00.433Z,61.1
2022-10-16T13:43:51.169Z,60.7
2022-10-16T13:46:42.507Z,60.5
2022-10-16T13:49:30.075Z,59.5
2022-10-16T13:52:17.452Z,59.7
2022-10-16T13:55:06.792Z,60.2
2022-10-16T13:57:57.935Z,60.8
2022-10-16T14:00:53.670Z,61
2022-10-16T14:03:44.205Z,61.7
2022-10-16T14:06:32.674Z,62.3
2022-10-16T14:09:22.345Z,62.6
2022-10-16T14:12:13.037Z,62.4
2022-10-16T14:15:00.650Z,61.7
2022-10-16T14:17:49.982Z,61.3
2022-10-16T14:20:39.042Z,61
2022-10-16T14:23:26.478Z,60.9
2022-10-16T14:26:16.329Z,60.6
2022-10-16T14:29:07.034Z,60.4
2022-10-16T14:32:00.367Z,60.3
2022-10-16T14:34:50.443Z,60.4
2022-10-16T14:37:40.330Z,60.5
2022-10-16T14:40:27.758Z,60.2
2022-10-16T14:43:17.566Z,60
2022-10-16T14:46:08.809Z,60.2
2022-10-16T14:49:00.218Z,59.8
2022-10-16T14:51:59.377Z,60.3
2022-10-16T14:54:51.214Z,59.9
2022-10-16T14:57:40.394Z,60.2
2022-10-16T15:00:30.366Z,60
2022-10-16T15:03:18.110Z,60.2
2022-10-16T15:06:05.435Z,60.1
2022-10-16T15:08:56.705Z,60
2022-10-16T15:11:44.037Z,60.1
2022-10-16T15:14:32.221Z,60.2
2022-10-16T15:17:22.069Z,60.3
2022-10-16T15:20:09.901Z,60.4
2022-10-16T15:22:57.653Z,60.6
2022-10-16T15:25:45.455Z,60.8
2022-10-16T15:28:34.804Z,61.2
2022-10-16T15:31:22.396Z,61.9
2022-10-16T15:34:10.090Z,61.5
2022-10-16T15:36:58.890Z,61.7
2022-10-16T15:39:49.870Z,61.7
2022-10-16T15:42:37.196Z,61.8
2022-10-16T15:45:24.888Z,61.9
2022-10-16T15:48:12.366Z,62.1
2022-10-16T15:50:59.750Z,62.3
2022-10-16T15:53:52.008Z,62.5
2022-10-16T15:56:39.744Z,63.3
2022-10-16T15:59:27.221Z,63.1
2022-10-16T16:02:14.658Z,63.2
2022-10-16T16:05:02.522Z,63.6
2022-10-16T16:07:52.084Z,63.3
2022-10-16T16:10:39.539Z,63.6
2022-10-16T16:13:26.969Z,63.8
2022-10-16T16:16:14.510Z,63.8
2022-10-16T16:19:05.518Z,64.2
2022-10-16T16:21:55.320Z,64.5
2022-10-16T16:24:42.776Z,64.6
2022-10-16T16:27:30.723Z,64.8
2022-10-16T16:30:20.393Z,64.6
2022-10-16T16:33:08.618Z,64.9
2022-10-16T16:35:56.154Z,65.2
2022-10-16T16:38:44.927Z,65.1
2022-10-16T16:41:32.658Z,65.2
2022-10-16T16:44:20.097Z,65.3
2022-10-16T16:47:07.442Z,65.2
2022-10-16T16:49:55.914Z,65.5
2022-10-16T16:52:43.222Z,65.6
2022-10-16T16:55:30.652Z,65.7
2022-10-16T16:58:19.292Z,65.9
2022-10-16T17:01:19.428Z,65.8
2022-10-16T17:04:09.375Z,66.3
2022-10-16T17:06:57.209Z,66.5
2022-10-16T17:09:44.569Z,66.4
2022-10-16T17:12:32.017Z,66.6
2022-10-16T17:15:19.605Z,66.7
2022-10-16T17:18:07.389Z,66.8
2022-10-16T17:20:54.831Z,66.7
2022-10-16T17:23:45.426Z,66.9
2022-10-16T17:26:32.736Z,67.1
2022-10-16T17:29:22.957Z,67
2022-10-16T17:32:11.061Z,67.3
2022-10-16T17:34:58.835Z,67.3
2022-10-16T17:37:46.155Z,67.5
2022-10-16T17:40:33.674Z,67.6
2022-10-16T17:43:21.501Z,67.7
2022-10-16T17:46:08.995Z,68.2
2022-10-16T17:48:58.707Z,68.2
2022-10-16T17:51:46.164Z,68.5
2022-10-16T17:54:36.027Z,68.6
2022-10-16T17:57:24.499Z,69
2022-10-16T18:00:11.868Z,68.8
2022-10-16T18:02:59.593Z,68.8
2022-10-16T18:05:47.678Z,68.9
2022-10-16T18:08:35.046Z,68.8
2022-10-16T18:11:22.609Z,68.7
2022-10-16T18:14:11.201Z,68.8
2022-10-16T18:17:00.886Z,68.6
2022-10-16T18:19:49.573Z,68.9
2022-10-16T18:22:37.140Z,68.9
2022-10-16T18:25:24.761Z,68.3
2022-10-16T18:28:12.136Z,68.2
2022-10-16T18:30:59.515Z,68.4
2022-10-16T18:33:50.514Z,68.8
2022-10-16T18:36:38.566Z,68.6
2022-10-16T18:39:27.589Z,68.5
2022-10-16T18:42:14.989Z,68.6
2022-10-16T18:45:04.401Z,68.8
2022-10-16T18:47:52.998Z,68.9
2022-10-16T18:50:40.249Z,68.9
2022-10-16T18:56:14.902Z,69.1
2022-10-16T18:59:04.565Z,69
2022-10-16T19:01:54.185Z,68.9
2022-10-16T19:04:42.501Z,69
2022-10-16T19:07:30.217Z,68.7
2022-10-16T19:10:17.761Z,68.7
2022-10-16T19:13:07.642Z,69.1
2022-10-16T19:16:03.614Z,69
2022-10-16T19:18:57.481Z,69.2
2022-10-16T19:21:47.143Z,69.6
2022-10-16T19:24:40.574Z,70.2
2022-10-16T19:27:29.642Z,69.5
2022-10-16T19:30:17.034Z,69.6
2022-10-16T19:33:05.224Z,69.4
2022-10-16T19:35:52.511Z,69.3
2022-10-16T19:38:40.164Z,69.1
2022-10-16T19:41:28.726Z,69.4
2022-10-16T19:44:16.527Z,69.6
2022-10-16T19:47:04.491Z,70
2022-10-16T19:49:51.921Z,69.8
2022-10-16T19:52:39.257Z,69.8
2022-10-16T19:55:27.014Z,69.6
2022-10-16T19:58:16.519Z,69.6
2022-10-16T20:01:04.269Z,69.5
2022-10-16T20:03:51.664Z,69.4
2022-10-16T20:06:39.298Z,69.3
2022-10-16T20:09:27.049Z,69.3
2022-10-16T20:12:14.597Z,69.4
2022-10-16T20:15:02.912Z,69.6
2022-10-16T20:17:51.858Z,69.5
2022-10-16T20:20:39.200Z,69.5
2022-10-16T20:23:29.146Z,69.6
2022-10-16T20:26:16.703Z,69.5
2022-10-16T20:29:06.967Z,69.5
2022-10-16T20:31:54.595Z,69.4
2022-10-16T20:34:42.054Z,69.3
2022-10-16T20:37:33.742Z,69.9
2022-10-16T20:40:21.076Z,69.5
2022-10-16T20:43:08.599Z,69.5
2022-10-16T20:45:58.228Z,69.4
2022-10-16T20:48:47.592Z,69.5
2022-10-16T20:51:36.657Z,69.5
2022-10-16T20:54:24.248Z,69.7
2022-10-16T20:57:11.675Z,69.7
2022-10-16T20:59:59.054Z,69.7
2022-10-16T21:02:46.403Z,69.6
2022-10-16T21:05:35.829Z,70.6
2022-10-16T21:08:26.008Z,70.3
2022-10-16T21:11:13.348Z,71.2
2022-10-16T21:14:04.009Z,71
2022-10-16T21:16:53.627Z,70.9
2022-10-16T21:19:41.255Z,70.8
2022-10-16T21:22:29.310Z,71.4
2022-10-16T21:25:16.987Z,71.3
2022-10-16T21:28:04.331Z,71.5
2022-10-16T21:30:51.676Z,70.8
2022-10-16T21:33:39.060Z,72.1
2022-10-16T21:36:26.540Z,71.7
2022-10-16T21:39:15.467Z,71.8
2022-10-16T21:42:05.270Z,72
2022-10-16T21:44:52.524Z,73
2022-10-16T21:47:39.995Z,72.7
2022-10-16T21:50:27.743Z,72.8
2022-10-16T21:53:15.163Z,73.1
2022-10-16T21:56:02.793Z,73.4
2022-10-16T21:58:57.030Z,73.3
2022-10-16T22:01:44.676Z,73
2022-10-16T22:04:32.118Z,72.9
2022-10-16T22:07:19.556Z,73.2
2022-10-16T22:10:07.130Z,73
2022-10-16T22:12:55.115Z,73
2022-10-16T22:15:42.544Z,72.6
2022-10-16T22:18:37.352Z,72.8
2022-10-16T22:21:25.427Z,72.4
2022-10-16T22:24:13.204Z,72.2
2022-10-16T22:27:01.607Z,72.7
2022-10-16T22:29:50.152Z,72.8
2022-10-16T22:32:38.191Z,73.2
2022-10-16T22:35:25.413Z,73
2022-10-16T22:38:13.274Z,73.5
2022-10-16T22:41:00.672Z,73.7
2022-10-16T22:43:49.788Z,74.2
2022-10-16T22:46:38.024Z,74.3
2022-10-16T22:49:25.923Z,74.3
2022-10-16T22:52:13.298Z,74.5
2022-10-16T22:55:00.683Z,74.7
2022-10-16T22:57:49.424Z,74.7
2022-10-16T23:00:36.704Z,74.9
2022-10-16T23:03:27.044Z,75.1
2022-10-16T23:06:14.561Z,75
2022-10-16T23:09:02.240Z,75.2
2022-10-16T23:11:50.713Z,75.4
2022-10-16T23:14:38.008Z,75.3
2022-10-16T23:17:25.867Z,75.2
2022-10-16T23:20:13.306Z,75.2
2022-10-16T23:23:00.886Z,75.4
2022-10-16T23:25:49.547Z,75.1
2022-10-16T23:28:37.125Z,75.2
2022-10-16T23:31:24.971Z,75.4
2022-10-16T23:34:13.940Z,75.8
2022-10-16T23:37:01.521Z,75.8
2022-10-16T23:39:51.208Z,76
2022-10-16T23:42:38.833Z,76.2
2022-10-16T23:45:26.265Z,76.1
2022-10-16T23:48:13.710Z,76.2
2022-10-16T23:51:01.038Z,76.2
2022-10-16T23:53:49.909Z,76.3
2022-10-16T23:56:38.362Z,76.2
2022-10-16T23:59:25.841Z,76.1
